createdAt,value
2019-06-08T00:02:22.951Z,99.90
2019-06-08T00:04:53.312Z,99.90
2019-06-08T00:07:23.470Z,99.90
2019-06-08T00:09:53.356Z,99.90
2019-06-08T00:12:23.540Z,99.90
2019-06-08T00:14:53.473Z,99.90
2019-06-08T00:17:34.390Z,99.90
2019-06-08T00:19:54.874Z,99.90
2019-06-08T00:22:24.827Z,99.90
2019-06-08T00:24:54.700Z,99.90
2019-06-08T00:27:24.663Z,99.90
2019-06-08T00:29:54.593Z,99.90
2019-06-08T00:32:25.516Z,99.90
2019-06-08T00:34:55.497Z,99.90
2019-06-08T00:37:25.513Z,99.90
2019-06-08T00:39:55.343Z,99.90
2019-06-08T00:42:25.600Z,99.90
2019-06-08T00:44:55.810Z,99.90
2019-06-08T00:47:26.862Z,99.90
2019-06-08T00:49:57.570Z,99.90
2019-06-08T00:52:27.503Z,99.90
2019-06-08T00:54:57.377Z,99.90
2019-06-08T00:57:27.231Z,99.90
2019-06-08T00:59:57.157Z,99.90
2019-06-08T01:02:27.111Z,99.90
2019-06-08T01:04:56.964Z,99.90
2019-06-08T01:07:27.037Z,99.90
2019-06-08T01:09:57.021Z,99.90
2019-06-08T01:12:26.914Z,99.90
2019-06-08T01:14:57.070Z,99.90
2019-06-08T01:17:27.500Z,99.90
2019-06-08T01:19:58.036Z,99.90
2019-06-08T01:22:27.970Z,99.90
2019-06-08T01:24:57.850Z,99.90
2019-06-08T01:27:28.241Z,99.90
2019-06-08T01:29:58.180Z,99.90
2019-06-08T01:32:29.027Z,99.90
2019-06-08T01:34:59.167Z,99.90
2019-06-08T01:37:29.145Z,99.90
2019-06-08T01:39:59.193Z,99.90
2019-06-08T01:42:29.723Z,99.90
2019-06-08T01:45:00.149Z,99.90
2019-06-08T01:47:30.369Z,99.90
2019-06-08T01:50:00.349Z,99.90
2019-06-08T01:52:30.906Z,99.90
2019-06-08T01:55:00.950Z,99.90
2019-06-08T01:57:31.544Z,99.90
2019-06-08T02:00:28.831Z,99.90
2019-06-08T02:02:34.187Z,99.90
2019-06-08T02:05:04.778Z,99.90
2019-06-08T02:07:34.719Z,99.90
2019-06-08T02:10:05.535Z,99.90
2019-06-08T02:12:35.783Z,99.90
2019-06-08T02:15:06.503Z,99.90
2019-06-08T02:17:36.381Z,99.90
2019-06-08T02:20:07.051Z,99.90
2019-06-08T02:22:37.093Z,99.90
2019-06-08T02:25:07.365Z,99.90
2019-06-08T02:27:37.560Z,99.90
2019-06-08T02:30:09.863Z,99.90
2019-06-08T02:32:40.587Z,99.90
2019-06-08T02:35:11.714Z,99.90
2019-06-08T02:37:41.782Z,99.90
2019-06-08T02:40:11.740Z,99.90
2019-06-08T02:42:41.696Z,99.90
2019-06-08T02:45:12.000Z,99.90
2019-06-08T02:47:42.253Z,99.90
2019-06-08T02:50:12.543Z,99.90
2019-06-08T02:52:44.573Z,99.90
2019-06-08T02:55:14.651Z,99.90
2019-06-08T02:57:46.317Z,99.90
2019-06-08T03:00:16.529Z,99.90
2019-06-08T03:02:48.041Z,99.90
2019-06-08T03:05:18.276Z,99.90
2019-06-08T03:07:51.136Z,99.90
2019-06-08T03:10:21.126Z,99.90
2019-06-08T03:12:53.155Z,99.90
2019-06-08T03:15:32.427Z,99.90
2019-06-08T03:18:01.737Z,99.90
2019-06-08T03:20:31.679Z,99.90
2019-06-08T03:23:02.007Z,99.90
2019-06-08T03:25:33.207Z,99.90
2019-06-08T03:28:03.456Z,99.90
2019-06-08T03:30:35.335Z,99.90
2019-06-08T03:33:04.875Z,99.90
2019-06-08T03:35:38.834Z,99.90
2019-06-08T03:38:07.634Z,99.90
2019-06-08T03:40:38.767Z,99.90
2019-06-08T03:43:10.017Z,99.90
2019-06-08T03:45:40.763Z,99.90
2019-06-08T03:48:11.383Z,99.90
2019-06-08T03:50:42.026Z,99.90
2019-06-08T03:53:12.936Z,99.90
2019-06-08T03:55:46.626Z,99.90
2019-06-08T03:58:15.135Z,99.90
2019-06-08T04:00:47.036Z,99.90
2019-06-08T04:03:17.211Z,99.90
2019-06-08T04:05:47.337Z,99.90
2019-06-08T04:08:17.662Z,99.90
2019-06-08T04:10:47.865Z,99.90
2019-06-08T04:13:18.102Z,99.90
2019-06-08T04:15:50.175Z,99.90
2019-06-08T04:18:20.327Z,99.90
2019-06-08T04:20:51.569Z,99.90
2019-06-08T04:23:23.943Z,99.90
2019-06-08T04:25:54.105Z,99.90
2019-06-08T04:28:26.949Z,99.90
2019-06-08T04:30:57.224Z,99.90
2019-06-08T04:33:27.414Z,99.90
2019-06-08T04:35:57.564Z,99.90
2019-06-08T04:38:27.963Z,99.90
2019-06-08T04:40:59.057Z,99.90
2019-06-08T04:43:34.559Z,99.90
2019-06-08T04:46:05.302Z,99.90
2019-06-08T04:48:35.832Z,99.90
2019-06-08T04:51:06.367Z,99.90
2019-06-08T04:53:43.262Z,99.90
2019-06-08T04:56:15.730Z,99.90
2019-06-08T04:58:46.824Z,99.90
2019-06-08T05:01:17.909Z,99.90
2019-06-08T05:03:49.676Z,99.90
2019-06-08T05:06:20.168Z,99.90
2019-06-08T05:08:50.657Z,99.90
2019-06-08T05:11:20.806Z,99.90
2019-06-08T05:13:50.984Z,99.90
2019-06-08T05:16:21.291Z,99.90
2019-06-08T05:18:51.517Z,99.90
2019-06-08T05:21:31.746Z,99.90
2019-06-08T05:24:01.895Z,99.90
2019-06-08T05:26:32.185Z,99.90
2019-06-08T05:29:02.279Z,99.90
2019-06-08T05:31:37.645Z,99.90
2019-06-08T05:34:07.982Z,99.90
2019-06-08T05:36:39.353Z,99.90
2019-06-08T05:39:09.745Z,99.90
2019-06-08T05:41:41.407Z,99.90
2019-06-08T05:44:11.646Z,99.90
2019-06-08T05:46:41.841Z,99.90
2019-06-08T05:49:12.099Z,99.90
2019-06-08T05:51:42.316Z,99.90
2019-06-08T05:54:12.556Z,99.90
2019-06-08T05:56:43.792Z,99.90
2019-06-08T05:59:14.103Z,99.90
2019-06-08T06:01:44.600Z,99.90
2019-06-08T06:04:14.946Z,99.90
2019-06-08T06:06:45.141Z,99.90
2019-06-08T06:09:15.214Z,99.90
2019-06-08T06:11:46.772Z,99.90
2019-06-08T06:14:17.063Z,99.90
2019-06-08T06:16:47.201Z,99.90
2019-06-08T06:19:17.425Z,99.90
2019-06-08T06:21:47.583Z,99.90
2019-06-08T06:24:17.862Z,99.90
2019-06-08T06:26:49.377Z,99.90
2019-06-08T06:29:19.560Z,99.90
2019-06-08T06:31:49.822Z,99.90
2019-06-08T06:34:20.351Z,99.90
2019-06-08T06:36:52.025Z,99.90
2019-06-08T06:39:22.304Z,99.90
2019-06-08T06:41:52.650Z,99.90
2019-06-08T06:44:23.774Z,99.90
2019-06-08T06:46:53.944Z,99.90
2019-06-08T06:49:24.237Z,99.90
2019-06-08T06:51:54.454Z,99.90
2019-06-08T06:54:24.767Z,99.90
2019-06-08T06:56:55.091Z,99.90
2019-06-08T06:59:25.302Z,99.90
2019-06-08T07:01:57.536Z,99.90
2019-06-08T07:04:27.494Z,99.90
2019-06-08T07:06:57.769Z,99.90
2019-06-08T07:09:27.992Z,99.90
2019-06-08T07:11:58.218Z,99.90
2019-06-08T07:14:28.472Z,99.90
2019-06-08T07:16:58.732Z,99.90
2019-06-08T07:19:29.811Z,99.90
2019-06-08T07:22:00.117Z,99.90
2019-06-08T07:24:30.215Z,99.90
2019-06-08T07:27:00.454Z,99.90
2019-06-08T07:29:30.469Z,99.90
2019-06-08T07:32:00.593Z,99.90
2019-06-08T07:34:30.863Z,99.90
2019-06-08T07:37:01.130Z,99.90
2019-06-08T07:39:31.445Z,99.90
2019-06-08T07:42:01.714Z,99.90
2019-06-08T07:44:32.993Z,99.90
2019-06-08T07:47:03.228Z,99.90
2019-06-08T07:49:33.446Z,99.90
2019-06-08T07:52:10.200Z,99.90
2019-06-08T07:54:35.554Z,99.90
2019-06-08T07:57:05.950Z,99.90
2019-06-08T07:59:36.138Z,99.90
2019-06-08T08:02:06.353Z,99.90
2019-06-08T08:04:37.814Z,99.90
2019-06-08T08:07:08.027Z,99.90
2019-06-08T08:09:38.246Z,99.90
2019-06-08T08:12:12.028Z,99.90
2019-06-08T08:14:42.185Z,99.90
2019-06-08T08:17:12.500Z,99.90
2019-06-08T08:19:42.929Z,99.90
2019-06-08T08:22:22.976Z,99.90
2019-06-08T08:24:50.412Z,99.90
2019-06-08T08:27:19.666Z,99.90
2019-06-08T08:29:50.397Z,99.90
2019-06-08T08:32:21.636Z,99.90
2019-06-08T08:34:52.167Z,99.90
2019-06-08T08:37:22.495Z,99.90
2019-06-08T08:39:53.530Z,99.90
2019-06-08T08:42:23.959Z,99.90
2019-06-08T08:44:54.271Z,99.90
2019-06-08T08:47:27.750Z,99.90
2019-06-08T08:49:59.140Z,99.90
2019-06-08T08:52:36.947Z,99.90
2019-06-08T08:55:02.258Z,99.90
2019-06-08T08:57:32.572Z,99.90
2019-06-08T09:00:05.033Z,99.90
2019-06-08T09:02:34.515Z,99.90
2019-06-08T09:05:05.114Z,99.90
2019-06-08T09:07:35.358Z,99.90
2019-06-08T09:10:08.523Z,99.90
2019-06-08T09:12:37.807Z,99.90
2019-06-08T09:15:08.550Z,99.90
2019-06-08T09:17:39.101Z,99.90
2019-06-08T09:20:15.490Z,99.90
2019-06-08T09:22:56.220Z,99.90
2019-06-08T09:25:18.215Z,99.90
2019-06-08T09:27:48.732Z,99.90
2019-06-08T09:30:19.119Z,99.90
2019-06-08T09:32:49.373Z,99.90
2019-06-08T09:35:21.297Z,99.90
2019-06-08T09:37:53.225Z,99.90
2019-06-08T09:40:25.901Z,99.90
2019-06-08T09:43:01.058Z,99.90
2019-06-08T09:45:29.003Z,99.90
2019-06-08T09:48:02.618Z,99.90
2019-06-08T09:50:31.845Z,99.90
2019-06-08T09:53:17.975Z,99.90
2019-06-08T09:55:33.904Z,99.90
2019-06-08T09:58:08.133Z,99.90
2019-06-08T10:00:37.910Z,99.90
2019-06-08T10:03:09.416Z,99.90
2019-06-08T10:05:40.040Z,99.90
2019-06-08T10:08:10.251Z,99.90
2019-06-08T10:10:40.569Z,99.90
2019-06-08T10:13:10.853Z,99.90
2019-06-08T10:15:41.067Z,99.90
2019-06-08T10:18:11.397Z,99.90
2019-06-08T10:20:41.901Z,99.90
2019-06-08T10:23:29.851Z,99.90
2019-06-08T10:25:44.005Z,99.90
2019-06-08T10:28:18.301Z,99.90
2019-06-08T10:30:48.311Z,99.90
2019-06-08T10:33:18.486Z,99.90
2019-06-08T10:35:48.839Z,99.90
2019-06-08T10:38:19.075Z,99.90
2019-06-08T10:41:06.840Z,99.90
2019-06-08T10:43:33.508Z,99.90
2019-06-08T10:46:10.006Z,99.90
2019-06-08T10:48:37.789Z,99.90
2019-06-08T10:51:11.251Z,99.90
2019-06-08T10:53:48.999Z,99.90
2019-06-08T10:56:14.362Z,99.90
2019-06-08T10:58:49.460Z,99.90
2019-06-08T11:01:20.127Z,99.90
2019-06-08T11:03:51.078Z,99.90
2019-06-08T11:06:21.337Z,99.90
2019-06-08T11:08:51.600Z,99.90
2019-06-08T11:11:23.816Z,99.90
2019-06-08T11:13:54.095Z,99.90
2019-06-08T11:16:24.341Z,99.90
2019-06-08T11:18:55.037Z,99.90
2019-06-08T11:21:28.602Z,99.90
2019-06-08T11:24:14.446Z,99.90
2019-06-08T11:26:34.632Z,99.90
2019-06-08T11:29:11.874Z,99.90
2019-06-08T11:31:41.805Z,99.90
2019-06-08T11:34:15.620Z,99.90
2019-06-08T11:36:48.413Z,99.90
2019-06-08T11:39:25.378Z,99.90
2019-06-08T11:41:58.813Z,99.90
2019-06-08T11:44:28.997Z,99.90
2019-06-08T11:47:02.533Z,97.00
2019-06-08T11:49:32.896Z,96.80
2019-06-08T11:52:09.073Z,97.40
2019-06-08T11:54:41.532Z,95.50
2019-06-08T11:57:13.020Z,93.10
2019-06-08T11:59:48.504Z,92.70
2019-06-08T12:02:18.846Z,94.20
2019-06-08T12:04:49.093Z,90.40
2019-06-08T12:07:21.786Z,93.60
2019-06-08T12:09:57.894Z,91.90
2019-06-08T12:12:28.264Z,90.10
2019-06-08T12:15:00.318Z,90.90
2019-06-08T12:17:30.576Z,90.60
2019-06-08T12:20:00.706Z,92.10
2019-06-08T12:22:30.929Z,90.60
2019-06-08T12:25:03.802Z,80.10
2019-06-08T12:27:40.429Z,80.90
2019-06-08T12:30:18.694Z,81.30
2019-06-08T12:32:42.866Z,78.00
2019-06-08T12:35:15.474Z,80.40
2019-06-08T12:37:51.558Z,72.10
2019-06-08T12:40:22.721Z,75.20
2019-06-08T12:43:11.362Z,74.20
2019-06-08T12:45:40.445Z,75.00
2019-06-08T12:48:19.574Z,72.80
2019-06-08T12:50:47.814Z,74.90
2019-06-08T12:53:22.585Z,71.30
2019-06-08T12:55:51.378Z,70.00
2019-06-08T12:58:23.984Z,67.10
2019-06-08T13:00:54.298Z,67.20
2019-06-08T13:03:24.530Z,64.60
2019-06-08T13:05:57.530Z,66.60
2019-06-08T13:08:28.633Z,67.80
2019-06-08T13:11:00.293Z,67.80
2019-06-08T13:13:30.860Z,72.80
2019-06-08T13:16:03.042Z,69.70
2019-06-08T13:18:40.277Z,81.60
2019-06-08T13:21:23.095Z,75.60
2019-06-08T13:23:41.298Z,75.80
2019-06-08T13:26:15.119Z,70.00
2019-06-08T13:28:43.779Z,76.70
2019-06-08T13:31:14.951Z,74.60
2019-06-08T13:33:48.588Z,68.10
2019-06-08T13:36:26.263Z,67.10
2019-06-08T13:38:55.693Z,61.60
2019-06-08T13:41:29.135Z,62.40
2019-06-08T13:43:58.271Z,62.60
2019-06-08T13:46:29.090Z,63.70
2019-06-08T13:48:59.336Z,66.10
2019-06-08T13:51:38.125Z,62.60
2019-06-08T13:54:08.709Z,57.70
2019-06-08T13:56:40.339Z,61.40
2019-06-08T13:59:10.656Z,60.20
2019-06-08T14:01:40.938Z,62.10
2019-06-08T14:04:13.073Z,59.00
2019-06-08T14:06:50.250Z,57.30
2019-06-08T14:09:25.225Z,57.30
2019-06-08T14:12:00.681Z,59.10
2019-06-08T14:14:33.656Z,58.50
2019-06-08T14:17:03.452Z,58.30
2019-06-08T14:19:35.121Z,58.50
2019-06-08T14:22:05.369Z,56.10
2019-06-08T14:24:37.600Z,56.30
2019-06-08T14:27:08.258Z,55.00
2019-06-08T14:29:38.585Z,57.60
2019-06-08T14:32:08.767Z,58.80
2019-06-08T14:34:40.056Z,60.80
2019-06-08T14:37:10.089Z,55.90
2019-06-08T14:39:40.792Z,57.40
2019-06-08T14:42:11.158Z,56.00
2019-06-08T14:44:41.361Z,58.80
2019-06-08T14:47:16.492Z,59.50
2019-06-08T14:49:48.788Z,62.70
2019-06-08T14:52:22.354Z,65.90
2019-06-08T14:54:53.646Z,63.20
2019-06-08T14:57:23.975Z,62.50
2019-06-08T14:59:59.064Z,62.50
2019-06-08T15:02:30.280Z,58.90
2019-06-08T15:05:00.494Z,60.50
2019-06-08T15:07:32.866Z,60.00
2019-06-08T15:10:09.837Z,56.70
2019-06-08T15:12:40.277Z,56.80
2019-06-08T15:15:14.181Z,57.00
2019-06-08T15:17:47.740Z,54.80
2019-06-08T15:20:24.022Z,56.20
2019-06-08T15:22:54.291Z,54.90
2019-06-08T15:25:24.690Z,54.30
2019-06-08T15:27:54.913Z,54.70
2019-06-08T15:30:25.215Z,54.40
2019-06-08T15:32:55.561Z,53.30
2019-06-08T15:35:25.777Z,55.50
2019-06-08T15:37:58.264Z,52.60
2019-06-08T15:40:28.001Z,53.60
2019-06-08T15:42:58.688Z,54.30
2019-06-08T15:45:30.946Z,52.60
2019-06-08T15:48:00.976Z,55.20
2019-06-08T15:50:34.824Z,53.20
2019-06-08T15:53:08.320Z,52.70
2019-06-08T15:55:39.945Z,53.10
2019-06-08T15:58:18.179Z,56.00
2019-06-08T16:00:55.550Z,53.30
2019-06-08T16:03:33.550Z,53.30
2019-06-08T16:06:04.105Z,54.20
2019-06-08T16:08:37.525Z,53.80
2019-06-08T16:11:07.141Z,53.30
2019-06-08T16:13:37.490Z,53.00
2019-06-08T16:16:07.854Z,55.20
2019-06-08T16:18:38.024Z,53.20
2019-06-08T16:21:08.283Z,54.30
2019-06-08T16:23:38.525Z,52.60
2019-06-08T16:26:08.798Z,51.80
2019-06-08T16:28:38.822Z,52.80
2019-06-08T16:31:08.933Z,54.30
2019-06-08T16:33:39.750Z,56.10
2019-06-08T16:36:09.887Z,58.20
2019-06-08T16:38:39.954Z,59.40
2019-06-08T16:41:10.046Z,59.00
2019-06-08T16:43:40.169Z,64.00
2019-06-08T16:46:10.293Z,61.80
2019-06-08T16:48:40.525Z,65.00
2019-06-08T16:51:10.614Z,65.90
2019-06-08T16:53:40.762Z,69.20
2019-06-08T16:56:11.026Z,66.60
2019-06-08T16:58:41.301Z,63.40
2019-06-08T17:01:11.529Z,62.40
2019-06-08T17:03:41.749Z,62.10
2019-06-08T17:06:11.966Z,62.40
2019-06-08T17:08:42.188Z,63.10
2019-06-08T17:11:12.421Z,62.20
2019-06-08T17:13:42.675Z,62.10
2019-06-08T17:16:12.815Z,64.20
2019-06-08T17:18:43.018Z,65.20
2019-06-08T17:21:13.407Z,65.30
2019-06-08T17:23:43.727Z,68.80
2019-06-08T17:26:13.866Z,70.40
2019-06-08T17:28:44.066Z,71.70
2019-06-08T17:31:14.267Z,72.50
2019-06-08T17:33:44.445Z,73.90
2019-06-08T17:36:14.715Z,73.50
2019-06-08T17:38:44.823Z,75.70
2019-06-08T17:41:15.026Z,77.50
2019-06-08T17:43:45.294Z,80.50
2019-06-08T17:46:15.502Z,79.50
2019-06-08T17:48:45.603Z,79.90
2019-06-08T17:51:15.813Z,77.80
2019-06-08T17:53:46.020Z,80.60
2019-06-08T17:56:16.167Z,75.30
2019-06-08T17:58:47.484Z,73.00
2019-06-08T18:01:17.634Z,72.70
2019-06-08T18:03:48.257Z,78.40
2019-06-08T18:06:19.026Z,81.30
2019-06-08T18:08:49.218Z,80.10
2019-06-08T18:11:19.411Z,80.70
2019-06-08T18:13:49.728Z,80.20
2019-06-08T18:16:21.303Z,80.40
2019-06-08T18:18:51.490Z,83.30
2019-06-08T18:21:23.403Z,89.50
2019-06-08T18:23:53.721Z,91.40
2019-06-08T18:26:24.034Z,91.80
2019-06-08T18:28:55.102Z,85.90
2019-06-08T18:31:27.488Z,67.70
2019-06-08T18:33:57.859Z,65.90
2019-06-08T18:36:28.914Z,63.50
2019-06-08T18:38:59.153Z,62.90
2019-06-08T18:41:29.226Z,63.90
2019-06-08T18:43:59.145Z,66.90
2019-06-08T18:46:29.376Z,68.80
2019-06-08T18:49:03.218Z,67.90
2019-06-08T18:51:33.589Z,72.30
2019-06-08T18:54:11.354Z,71.10
2019-06-08T18:56:40.497Z,69.60
2019-06-08T18:59:12.198Z,72.70
2019-06-08T19:01:45.153Z,76.00
2019-06-08T19:04:15.797Z,77.20
2019-06-08T19:06:54.338Z,76.60
2019-06-08T19:09:24.285Z,80.40
2019-06-08T19:11:57.485Z,78.10
2019-06-08T19:14:29.258Z,80.30
2019-06-08T19:16:59.548Z,85.10
2019-06-08T19:19:31.556Z,81.00
2019-06-08T19:22:01.944Z,81.10
2019-06-08T19:24:33.512Z,78.10
2019-06-08T19:27:03.766Z,80.40
2019-06-08T19:29:40.924Z,80.90
2019-06-08T19:32:16.941Z,85.10
2019-06-08T19:34:53.295Z,84.30
2019-06-08T19:37:20.251Z,82.50
2019-06-08T19:39:57.577Z,84.20
2019-06-08T19:42:39.522Z,83.30
2019-06-08T19:45:05.664Z,87.40
2019-06-08T19:47:36.384Z,90.70
2019-06-08T19:50:07.908Z,91.90
2019-06-08T19:52:42.055Z,91.80
2019-06-08T19:55:11.244Z,92.50
2019-06-08T19:57:41.899Z,91.70
2019-06-08T20:00:12.384Z,94.60
2019-06-08T20:02:44.550Z,93.20
2019-06-08T20:05:19.750Z,94.20
2019-06-08T20:07:49.927Z,97.10
2019-06-08T20:10:20.069Z,99.90
2019-06-08T20:12:50.991Z,99.90
2019-06-08T20:15:21.377Z,99.50
2019-06-08T20:17:51.663Z,99.90
2019-06-08T20:20:22.219Z,99.90
2019-06-08T20:22:53.522Z,99.90
2019-06-08T20:25:23.750Z,99.90
2019-06-08T20:27:54.325Z,99.90
2019-06-08T20:30:24.590Z,99.90
2019-06-08T20:32:57.430Z,99.90
2019-06-08T20:35:28.237Z,99.90
2019-06-08T20:37:58.571Z,99.90
2019-06-08T20:40:28.738Z,99.90
2019-06-08T20:43:00.727Z,99.90
2019-06-08T20:45:32.020Z,99.90
2019-06-08T20:48:03.834Z,99.90
2019-06-08T20:50:34.257Z,99.90
2019-06-08T20:53:08.657Z,99.90
2019-06-08T20:55:40.509Z,99.90
2019-06-08T20:58:11.160Z,99.90
2019-06-08T21:00:41.363Z,99.90
2019-06-08T21:03:12.023Z,99.90
2019-06-08T21:05:43.725Z,99.90
2019-06-08T21:08:13.862Z,99.90
2019-06-08T21:10:44.302Z,99.90
2019-06-08T21:13:17.799Z,99.90
2019-06-08T21:15:52.651Z,99.90
2019-06-08T21:18:19.586Z,99.90
2019-06-08T21:20:51.099Z,99.90
2019-06-08T21:23:21.398Z,99.90
2019-06-08T21:25:53.643Z,99.90
2019-06-08T21:28:23.435Z,99.90
2019-06-08T21:30:56.930Z,99.90
2019-06-08T21:33:25.721Z,99.90
2019-06-08T21:36:03.506Z,99.90
2019-06-08T21:38:28.280Z,99.90
2019-06-08T21:41:02.540Z,99.90
2019-06-08T21:43:30.298Z,99.90
2019-06-08T21:46:01.066Z,99.90
2019-06-08T21:48:31.570Z,99.90
2019-06-08T21:51:01.917Z,99.90
2019-06-08T21:53:32.230Z,99.90
2019-06-08T21:56:02.626Z,99.90
2019-06-08T21:58:32.854Z,99.90
2019-06-08T22:01:03.272Z,99.90
2019-06-08T22:03:33.505Z,99.90
2019-06-08T22:06:04.506Z,99.90
2019-06-08T22:08:34.690Z,99.90
2019-06-08T22:11:04.930Z,99.90
2019-06-08T22:13:37.208Z,99.90
2019-06-08T22:16:08.206Z,99.90
2019-06-08T22:18:38.698Z,99.90
2019-06-08T22:21:09.032Z,99.90
2019-06-08T22:23:39.222Z,99.90
2019-06-08T22:26:09.492Z,99.90
2019-06-08T22:28:39.701Z,99.90
2019-06-08T22:31:09.905Z,99.90
2019-06-08T22:33:40.238Z,99.90
2019-06-08T22:36:10.499Z,99.90
2019-06-08T22:38:40.674Z,99.90
2019-06-08T22:41:11.013Z,99.90
2019-06-08T22:43:41.263Z,99.90
2019-06-08T22:46:11.664Z,99.90
2019-06-08T22:48:41.911Z,99.90
2019-06-08T22:51:12.073Z,99.90
2019-06-08T22:53:42.257Z,99.90
2019-06-08T22:56:12.533Z,99.90
2019-06-08T22:58:42.727Z,99.90
2019-06-08T23:01:13.027Z,99.90
2019-06-08T23:03:43.301Z,99.90
2019-06-08T23:06:13.504Z,99.90
2019-06-08T23:08:44.659Z,99.90
2019-06-08T23:11:14.923Z,99.90
2019-06-08T23:13:47.057Z,99.90
2019-06-08T23:16:18.209Z,99.90
2019-06-08T23:18:48.617Z,99.90
2019-06-08T23:21:18.811Z,99.90
2019-06-08T23:23:48.982Z,99.90
2019-06-08T23:26:19.184Z,99.90
2019-06-08T23:28:49.385Z,99.90
2019-06-08T23:31:25.318Z,99.90
2019-06-08T23:33:51.574Z,99.90
2019-06-08T23:36:45.584Z,99.90
2019-06-08T23:38:53.534Z,99.90
2019-06-08T23:41:23.771Z,99.90
2019-06-08T23:43:53.989Z,99.90
2019-06-08T23:46:24.236Z,99.90
2019-06-08T23:48:54.528Z,99.90
2019-06-08T23:51:24.798Z,99.90
2019-06-08T23:53:55.062Z,99.90
2019-06-08T23:56:27.570Z,99.90
2019-06-08T23:58:57.113Z,99.90
